sensor_id;sensor_type;location;lat;lon;timestamp;pressure;altitude;pressure_sealevel;temperature;humidity
50464;BME280;62167;38.552;-121.478;2022-08-19T00:00:48;100838.25;;;37.82;21.85
50464;BME280;62167;38.552;-121.478;2022-08-19T00:03:16;100835.88;;;37.72;22.34
50464;BME280;62167;38.552;-121.478;2022-08-19T00:05:42;100844.16;;;37.68;21.95
50464;BME280;62167;38.552;-121.478;2022-08-19T00:08:09;100836.97;;;37.58;21.28
50464;BME280;62167;38.552;-121.478;2022-08-19T00:10:35;100841.28;;;37.56;22.05
50464;BME280;62167;38.552;-121.478;2022-08-19T00:13:01;100837.75;;;37.47;22.02
50464;BME280;62167;38.552;-121.478;2022-08-19T00:15:27;100841.00;;;37.36;21.78
50464;BME280;62167;38.552;-121.478;2022-08-19T00:17:54;100837.50;;;37.31;21.81
50464;BME280;62167;38.552;-121.478;2022-08-19T00:20:21;100841.03;;;37.28;22.03
50464;BME280;62167;38.552;-121.478;2022-08-19T00:22:48;100847.31;;;37.25;22.22
50464;BME280;62167;38.552;-121.478;2022-08-19T00:25:16;100842.13;;;37.14;21.64
50464;BME280;62167;38.552;-121.478;2022-08-19T00:27:42;100844.84;;;37.02;21.93
50464;BME280;62167;38.552;-121.478;2022-08-19T00:30:09;100837.47;;;36.98;21.77
50464;BME280;62167;38.552;-121.478;2022-08-19T00:32:36;100836.00;;;36.92;21.64
50464;BME280;62167;38.552;-121.478;2022-08-19T00:35:03;100836.34;;;36.90;22.30
50464;BME280;62167;38.552;-121.478;2022-08-19T00:37:29;100839.31;;;36.85;21.70
50464;BME280;62167;38.552;-121.478;2022-08-19T00:39:55;100830.38;;;36.62;20.44
50464;BME280;62167;38.552;-121.478;2022-08-19T00:42:22;100832.03;;;36.63;21.12
50464;BME280;62167;38.552;-121.478;2022-08-19T00:44:48;100827.09;;;36.60;20.44
50464;BME280;62167;38.552;-121.478;2022-08-19T00:47:16;100827.63;;;36.53;18.68
50464;BME280;62167;38.552;-121.478;2022-08-19T00:49:51;100823.56;;;36.42;18.63
50464;BME280;62167;38.552;-121.478;2022-08-19T00:52:30;100830.34;;;36.32;19.10
50464;BME280;62167;38.552;-121.478;2022-08-19T00:54:58;100826.25;;;36.21;18.82
50464;BME280;62167;38.552;-121.478;2022-08-19T00:57:34;100819.66;;;36.17;19.20
50464;BME280;62167;38.552;-121.478;2022-08-19T01:00:03;100820.31;;;36.14;19.65
50464;BME280;62167;38.552;-121.478;2022-08-19T01:02:32;100821.66;;;36.17;20.01
50464;BME280;62167;38.552;-121.478;2022-08-19T01:05:01;100824.47;;;36.08;20.13
50464;BME280;62167;38.552;-121.478;2022-08-19T01:07:28;100820.22;;;35.93;20.84
50464;BME280;62167;38.552;-121.478;2022-08-19T01:09:54;100813.31;;;35.91;20.32
50464;BME280;62167;38.552;-121.478;2022-08-19T01:12:20;100813.47;;;35.85;20.55
50464;BME280;62167;38.552;-121.478;2022-08-19T01:14:47;100811.34;;;35.82;21.36
50464;BME280;62167;38.552;-121.478;2022-08-19T01:17:15;100814.00;;;35.79;22.17
50464;BME280;62167;38.552;-121.478;2022-08-19T01:19:44;100813.69;;;35.63;22.35
50464;BME280;62167;38.552;-121.478;2022-08-19T01:22:31;100814.84;;;35.62;22.87
50464;BME280;62167;38.552;-121.478;2022-08-19T01:25:01;100805.78;;;35.48;23.48
50464;BME280;62167;38.552;-121.478;2022-08-19T01:27:39;100795.41;;;35.22;23.89
50464;BME280;62167;38.552;-121.478;2022-08-19T01:30:06;100796.25;;;35.14;24.26
50464;BME280;62167;38.552;-121.478;2022-08-19T01:32:33;100802.81;;;35.01;24.47
50464;BME280;62167;38.552;-121.478;2022-08-19T01:35:04;100797.66;;;34.85;24.87
50464;BME280;62167;38.552;-121.478;2022-08-19T01:37:40;100792.03;;;34.68;24.65
50464;BME280;62167;38.552;-121.478;2022-08-19T01:40:08;100783.44;;;34.56;25.43
50464;BME280;62167;38.552;-121.478;2022-08-19T01:42:34;100790.84;;;34.52;25.69
50464;BME280;62167;38.552;-121.478;2022-08-19T01:45:01;100789.16;;;34.42;25.60
50464;BME280;62167;38.552;-121.478;2022-08-19T01:47:27;100786.47;;;34.28;25.88
50464;BME280;62167;38.552;-121.478;2022-08-19T01:49:53;100783.06;;;34.00;26.50
50464;BME280;62167;38.552;-121.478;2022-08-19T01:52:20;100800.41;;;33.89;26.35
50464;BME280;62167;38.552;-121.478;2022-08-19T01:54:46;100794.63;;;33.85;26.42
50464;BME280;62167;38.552;-121.478;2022-08-19T01:57:13;100793.56;;;33.72;27.03
50464;BME280;62167;38.552;-121.478;2022-08-19T01:59:41;100800.56;;;33.61;26.98
50464;BME280;62167;38.552;-121.478;2022-08-19T02:02:09;100798.66;;;33.48;27.15
50464;BME280;62167;38.552;-121.478;2022-08-19T02:04:36;100801.78;;;33.46;27.23
50464;BME280;62167;38.552;-121.478;2022-08-19T02:07:06;100808.91;;;33.39;27.41
50464;BME280;62167;38.552;-121.478;2022-08-19T02:09:34;100808.72;;;33.13;27.58
50464;BME280;62167;38.552;-121.478;2022-08-19T02:12:00;100814.84;;;32.87;28.46
50464;BME280;62167;38.552;-121.478;2022-08-19T02:14:26;100807.97;;;32.57;28.37
50464;BME280;62167;38.552;-121.478;2022-08-19T02:16:53;100802.19;;;32.40;29.54
50464;BME280;62167;38.552;-121.478;2022-08-19T02:19:19;100808.16;;;32.19;29.77
50464;BME280;62167;38.552;-121.478;2022-08-19T02:21:46;100810.00;;;32.10;29.30
50464;BME280;62167;38.552;-121.478;2022-08-19T02:24:12;100811.50;;;31.89;29.75
50464;BME280;62167;38.552;-121.478;2022-08-19T02:26:48;100822.63;;;31.56;29.71
50464;BME280;62167;38.552;-121.478;2022-08-19T02:29:14;100819.78;;;31.42;29.29
50464;BME280;62167;38.552;-121.478;2022-08-19T02:31:40;100829.72;;;31.30;30.15
50464;BME280;62167;38.552;-121.478;2022-08-19T02:34:06;100830.09;;;31.23;30.54
50464;BME280;62167;38.552;-121.478;2022-08-19T02:36:33;100828.56;;;30.93;30.50
50464;BME280;62167;38.552;-121.478;2022-08-19T02:38:59;100836.50;;;30.81;30.33
50464;BME280;62167;38.552;-121.478;2022-08-19T02:41:31;100830.41;;;30.55;29.88
50464;BME280;62167;38.552;-121.478;2022-08-19T02:44:00;100832.38;;;30.30;30.39
50464;BME280;62167;38.552;-121.478;2022-08-19T02:46:30;100833.78;;;30.28;31.11
50464;BME280;62167;38.552;-121.478;2022-08-19T02:49:00;100837.94;;;30.01;30.32
50464;BME280;62167;38.552;-121.478;2022-08-19T02:51:34;100837.53;;;29.84;30.67
50464;BME280;62167;38.552;-121.478;2022-08-19T02:54:02;100840.19;;;29.65;30.67
50464;BME280;62167;38.552;-121.478;2022-08-19T02:56:29;100845.22;;;29.63;31.18
50464;BME280;62167;38.552;-121.478;2022-08-19T02:58:57;100843.34;;;29.48;31.62
50464;BME280;62167;38.552;-121.478;2022-08-19T03:01:29;100848.75;;;29.29;31.81
50464;BME280;62167;38.552;-121.478;2022-08-19T03:03:57;100853.34;;;29.05;32.10
50464;BME280;62167;38.552;-121.478;2022-08-19T03:06:25;100858.09;;;28.94;32.04
50464;BME280;62167;38.552;-121.478;2022-08-19T03:08:52;100854.59;;;28.68;31.97
50464;BME280;62167;38.552;-121.478;2022-08-19T03:11:30;100860.22;;;28.42;32.10
50464;BME280;62167;38.552;-121.478;2022-08-19T03:13:58;100857.44;;;28.32;32.50
50464;BME280;62167;38.552;-121.478;2022-08-19T03:16:27;100851.38;;;28.25;33.30
50464;BME280;62167;38.552;-121.478;2022-08-19T03:18:56;100857.22;;;28.03;32.94
50464;BME280;62167;38.552;-121.478;2022-08-19T03:21:25;100853.34;;;27.99;33.08
50464;BME280;62167;38.552;-121.478;2022-08-19T03:23:56;100859.72;;;27.84;33.10
50464;BME280;62167;38.552;-121.478;2022-08-19T03:26:23;100868.00;;;27.64;33.13
50464;BME280;62167;38.552;-121.478;2022-08-19T03:28:49;100868.00;;;27.54;34.38
50464;BME280;62167;38.552;-121.478;2022-08-19T03:31:18;100865.75;;;27.40;34.13
50464;BME280;62167;38.552;-121.478;2022-08-19T03:33:45;100870.44;;;27.30;33.79
50464;BME280;62167;38.552;-121.478;2022-08-19T03:36:20;100871.81;;;27.22;33.88
50464;BME280;62167;38.552;-121.478;2022-08-19T03:38:52;100869.78;;;27.02;34.00
50464;BME280;62167;38.552;-121.478;2022-08-19T03:41:23;100867.84;;;26.98;34.31
50464;BME280;62167;38.552;-121.478;2022-08-19T03:43:50;100872.22;;;26.88;34.34
50464;BME280;62167;38.552;-121.478;2022-08-19T03:46:19;100868.59;;;26.78;34.79
50464;BME280;62167;38.552;-121.478;2022-08-19T03:48:47;100871.06;;;26.74;34.43
50464;BME280;62167;38.552;-121.478;2022-08-19T03:51:24;100862.34;;;26.45;35.45
50464;BME280;62167;38.552;-121.478;2022-08-19T03:53:53;100868.91;;;26.39;35.51
50464;BME280;62167;38.552;-121.478;2022-08-19T03:56:20;100866.66;;;26.31;35.66
50464;BME280;62167;38.552;-121.478;2022-08-19T03:58:47;100869.97;;;26.33;36.70
50464;BME280;62167;38.552;-121.478;2022-08-19T04:01:16;100869.31;;;26.16;36.05
50464;BME280;62167;38.552;-121.478;2022-08-19T04:03:44;100875.38;;;26.12;36.33
50464;BME280;62167;38.552;-121.478;2022-08-19T04:06:24;100873.63;;;26.01;36.30
50464;BME280;62167;38.552;-121.478;2022-08-19T04:08:52;100871.06;;;25.95;36.56
50464;BME280;62167;38.552;-121.478;2022-08-19T04:11:26;100873.81;;;25.90;36.67
50464;BME280;62167;38.552;-121.478;2022-08-19T04:13:53;100881.00;;;25.91;37.13
50464;BME280;62167;38.552;-121.478;2022-08-19T04:16:24;100888.88;;;25.77;36.60
50464;BME280;62167;38.552;-121.478;2022-08-19T04:18:54;100888.22;;;25.70;38.04
50464;BME280;62167;38.552;-121.478;2022-08-19T04:21:24;100886.56;;;25.69;38.47
50464;BME280;62167;38.552;-121.478;2022-08-19T04:23:51;100894.59;;;25.43;37.75
50464;BME280;62167;38.552;-121.478;2022-08-19T04:26:22;100895.13;;;25.40;37.83
50464;BME280;62167;38.552;-121.478;2022-08-19T04:28:49;100895.59;;;25.32;37.92
50464;BME280;62167;38.552;-121.478;2022-08-19T04:31:19;100904.31;;;25.24;38.28
50464;BME280;62167;38.552;-121.478;2022-08-19T04:33:46;100903.75;;;25.22;38.88
50464;BME280;62167;38.552;-121.478;2022-08-19T04:36:26;100898.63;;;25.08;38.49
50464;BME280;62167;38.552;-121.478;2022-08-19T04:38:55;100898.78;;;25.02;38.72
50464;BME280;62167;38.552;-121.478;2022-08-19T04:41:22;100903.03;;;24.88;39.03
50464;BME280;62167;38.552;-121.478;2022-08-19T04:44:06;100909.06;;;24.84;38.98
50464;BME280;62167;38.552;-121.478;2022-08-19T04:46:33;100915.06;;;24.81;39.73
50464;BME280;62167;38.552;-121.478;2022-08-19T04:49:02;100907.00;;;24.75;39.75
50464;BME280;62167;38.552;-121.478;2022-08-19T04:51:30;100920.31;;;24.61;39.96
50464;BME280;62167;38.552;-121.478;2022-08-19T04:53:57;100914.22;;;24.59;40.26
50464;BME280;62167;38.552;-121.478;2022-08-19T04:56:26;100916.75;;;24.44;40.33
50464;BME280;62167;38.552;-121.478;2022-08-19T04:58:53;100912.31;;;24.43;40.50
50464;BME280;62167;38.552;-121.478;2022-08-19T05:01:23;100923.75;;;24.34;40.89
50464;BME280;62167;38.552;-121.478;2022-08-19T05:03:50;100917.00;;;24.25;41.22
50464;BME280;62167;38.552;-121.478;2022-08-19T05:06:19;100921.41;;;24.26;41.91
50464;BME280;62167;38.552;-121.478;2022-08-19T05:08:46;100917.66;;;24.16;41.74
50464;BME280;62167;38.552;-121.478;2022-08-19T05:13:42;100923.00;;;24.05;42.45
50464;BME280;62167;38.552;-121.478;2022-08-19T05:16:09;100926.16;;;23.97;42.44
50464;BME280;62167;38.552;-121.478;2022-08-19T05:18:36;100917.16;;;23.85;42.77
50464;BME280;62167;38.552;-121.478;2022-08-19T05:21:22;100921.56;;;23.86;42.84
50464;BME280;62167;38.552;-121.478;2022-08-19T05:24:07;100927.25;;;23.79;43.60
50464;BME280;62167;38.552;-121.478;2022-08-19T05:26:38;100927.50;;;23.78;43.27
50464;BME280;62167;38.552;-121.478;2022-08-19T05:29:06;100927.06;;;23.69;43.96
50464;BME280;62167;38.552;-121.478;2022-08-19T05:31:33;100948.03;;;23.59;43.93
50464;BME280;62167;38.552;-121.478;2022-08-19T05:34:00;100938.84;;;23.53;44.43
50464;BME280;62167;38.552;-121.478;2022-08-19T05:36:27;100944.00;;;23.49;44.62
50464;BME280;62167;38.552;-121.478;2022-08-19T05:38:54;100945.47;;;23.40;44.99
50464;BME280;62167;38.552;-121.478;2022-08-19T05:41:22;100944.78;;;23.33;45.27
50464;BME280;62167;38.552;-121.478;2022-08-19T05:44:00;100941.09;;;23.27;45.25
50464;BME280;62167;38.552;-121.478;2022-08-19T05:46:27;100940.75;;;23.24;45.55
50464;BME280;62167;38.552;-121.478;2022-08-19T05:48:53;100943.38;;;23.19;45.77
50464;BME280;62167;38.552;-121.478;2022-08-19T05:51:23;100940.06;;;23.17;45.95
50464;BME280;62167;38.552;-121.478;2022-08-19T05:53:50;100941.63;;;23.13;46.25
50464;BME280;62167;38.552;-121.478;2022-08-19T05:56:18;100940.44;;;23.09;45.93
50464;BME280;62167;38.552;-121.478;2022-08-19T05:58:45;100932.91;;;23.04;45.79
50464;BME280;62167;38.552;-121.478;2022-08-19T06:01:14;100938.66;;;23.02;45.81
50464;BME280;62167;38.552;-121.478;2022-08-19T06:03:40;100933.53;;;22.94;46.59
50464;BME280;62167;38.552;-121.478;2022-08-19T06:06:08;100939.03;;;22.94;46.28
50464;BME280;62167;38.552;-121.478;2022-08-19T06:08:35;100939.28;;;22.93;46.12
50464;BME280;62167;38.552;-121.478;2022-08-19T06:13:46;100938.66;;;22.91;46.43
50464;BME280;62167;38.552;-121.478;2022-08-19T06:16:17;100938.41;;;22.80;46.28
50464;BME280;62167;38.552;-121.478;2022-08-19T06:18:53;100941.41;;;22.79;46.41
50464;BME280;62167;38.552;-121.478;2022-08-19T06:21:21;100942.25;;;22.79;47.42
50464;BME280;62167;38.552;-121.478;2022-08-19T06:23:49;100945.25;;;22.78;47.19
50464;BME280;62167;38.552;-121.478;2022-08-19T06:26:18;100942.97;;;22.75;47.22
50464;BME280;62167;38.552;-121.478;2022-08-19T06:28:46;100947.03;;;22.72;47.18
50464;BME280;62167;38.552;-121.478;2022-08-19T06:31:18;100937.25;;;22.65;47.84
50464;BME280;62167;38.552;-121.478;2022-08-19T06:33:47;100944.91;;;22.63;47.88
50464;BME280;62167;38.552;-121.478;2022-08-19T06:36:31;100940.50;;;22.62;46.93
50464;BME280;62167;38.552;-121.478;2022-08-19T06:39:11;100937.63;;;22.57;47.27
50464;BME280;62167;38.552;-121.478;2022-08-19T06:41:41;100943.00;;;22.51;47.70
50464;BME280;62167;38.552;-121.478;2022-08-19T06:44:08;100941.31;;;22.50;47.54
50464;BME280;62167;38.552;-121.478;2022-08-19T06:46:36;100937.59;;;22.45;47.95
50464;BME280;62167;38.552;-121.478;2022-08-19T06:49:06;100932.38;;;22.43;47.94
50464;BME280;62167;38.552;-121.478;2022-08-19T06:51:34;100934.16;;;22.38;48.10
50464;BME280;62167;38.552;-121.478;2022-08-19T06:54:01;100931.66;;;22.36;48.11
50464;BME280;62167;38.552;-121.478;2022-08-19T06:56:29;100927.84;;;22.37;48.29
50464;BME280;62167;38.552;-121.478;2022-08-19T06:59:04;100924.34;;;22.30;48.50
50464;BME280;62167;38.552;-121.478;2022-08-19T07:01:35;100925.94;;;22.26;48.35
50464;BME280;62167;38.552;-121.478;2022-08-19T07:04:07;100927.59;;;22.27;48.33
50464;BME280;62167;38.552;-121.478;2022-08-19T07:06:35;100925.09;;;22.25;48.40
50464;BME280;62167;38.552;-121.478;2022-08-19T07:09:04;100928.88;;;22.24;48.92
50464;BME280;62167;38.552;-121.478;2022-08-19T07:11:31;100923.91;;;22.21;48.92
50464;BME280;62167;38.552;-121.478;2022-08-19T07:13:59;100920.19;;;22.16;48.43
50464;BME280;62167;38.552;-121.478;2022-08-19T07:16:26;100921.84;;;22.17;49.32
50464;BME280;62167;38.552;-121.478;2022-08-19T07:18:53;100925.69;;;22.16;48.52
50464;BME280;62167;38.552;-121.478;2022-08-19T07:21:23;100923.84;;;22.10;49.05
50464;BME280;62167;38.552;-121.478;2022-08-19T07:23:53;100920.38;;;22.02;49.04
50464;BME280;62167;38.552;-121.478;2022-08-19T07:26:25;100926.09;;;22.01;49.57
50464;BME280;62167;38.552;-121.478;2022-08-19T07:28:53;100913.56;;;21.93;49.49
50464;BME280;62167;38.552;-121.478;2022-08-19T07:31:22;100904.50;;;21.93;49.08
50464;BME280;62167;38.552;-121.478;2022-08-19T07:33:50;100917.38;;;21.92;49.16
50464;BME280;62167;38.552;-121.478;2022-08-19T07:36:21;100919.53;;;21.90;49.98
50464;BME280;62167;38.552;-121.478;2022-08-19T07:38:49;100916.88;;;21.84;49.79
50464;BME280;62167;38.552;-121.478;2022-08-19T07:41:20;100911.88;;;21.81;50.19
50464;BME280;62167;38.552;-121.478;2022-08-19T07:43:48;100916.75;;;21.79;50.07
50464;BME280;62167;38.552;-121.478;2022-08-19T07:46:19;100909.22;;;21.74;49.90
50464;BME280;62167;38.552;-121.478;2022-08-19T07:48:49;100906.97;;;21.71;50.36
50464;BME280;62167;38.552;-121.478;2022-08-19T07:51:19;100897.78;;;21.65;50.40
50464;BME280;62167;38.552;-121.478;2022-08-19T07:53:46;100902.63;;;21.63;50.46
50464;BME280;62167;38.552;-121.478;2022-08-19T07:56:14;100902.16;;;21.55;49.87
50464;BME280;62167;38.552;-121.478;2022-08-19T07:58:43;100907.03;;;21.53;50.60
50464;BME280;62167;38.552;-121.478;2022-08-19T08:01:14;100911.28;;;21.48;50.30
50464;BME280;62167;38.552;-121.478;2022-08-19T08:03:41;100907.72;;;21.48;50.04
50464;BME280;62167;38.552;-121.478;2022-08-19T08:06:26;100906.88;;;21.47;50.10
50464;BME280;62167;38.552;-121.478;2022-08-19T08:09:11;100904.63;;;21.44;50.55
50464;BME280;62167;38.552;-121.478;2022-08-19T08:11:51;100899.84;;;21.40;50.48
50464;BME280;62167;38.552;-121.478;2022-08-19T08:14:20;100900.88;;;21.39;50.90
50464;BME280;62167;38.552;-121.478;2022-08-19T08:16:48;100900.53;;;21.35;51.01
50464;BME280;62167;38.552;-121.478;2022-08-19T08:19:20;100896.97;;;21.35;51.30
50464;BME280;62167;38.552;-121.478;2022-08-19T08:21:48;100896.34;;;21.33;51.41
50464;BME280;62167;38.552;-121.478;2022-08-19T08:24:15;100898.50;;;21.31;51.51
50464;BME280;62167;38.552;-121.478;2022-08-19T08:26:42;100889.84;;;21.27;52.26
50464;BME280;62167;38.552;-121.478;2022-08-19T08:29:10;100895.81;;;21.24;52.10
50464;BME280;62167;38.552;-121.478;2022-08-19T08:31:39;100898.41;;;21.19;52.27
50464;BME280;62167;38.552;-121.478;2022-08-19T08:34:07;100881.84;;;21.14;52.32
50464;BME280;62167;38.552;-121.478;2022-08-19T08:36:37;100878.47;;;21.12;52.41
50464;BME280;62167;38.552;-121.478;2022-08-19T08:39:09;100885.47;;;21.08;52.67
50464;BME280;62167;38.552;-121.478;2022-08-19T08:44:42;100886.94;;;20.92;53.64
50464;BME280;62167;38.552;-121.478;2022-08-19T08:47:12;100885.06;;;20.74;54.20
50464;BME280;62167;38.552;-121.478;2022-08-19T08:49:50;100880.44;;;20.75;54.60
50464;BME280;62167;38.552;-121.478;2022-08-19T08:52:23;100880.03;;;20.71;55.11
50464;BME280;62167;38.552;-121.478;2022-08-19T08:54:54;100875.72;;;20.63;55.08
50464;BME280;62167;38.552;-121.478;2022-08-19T08:59:53;100871.81;;;20.53;55.89
50464;BME280;62167;38.552;-121.478;2022-08-19T09:02:22;100877.81;;;20.43;56.09
50464;BME280;62167;38.552;-121.478;2022-08-19T09:04:48;100870.47;;;20.37;56.25
50464;BME280;62167;38.552;-121.478;2022-08-19T09:10:32;100867.06;;;20.23;56.92
50464;BME280;62167;38.552;-121.478;2022-08-19T09:15:53;100870.75;;;20.10;57.34
50464;BME280;62167;38.552;-121.478;2022-08-19T09:18:20;100865.06;;;20.12;57.21
50464;BME280;62167;38.552;-121.478;2022-08-19T09:20:47;100864.53;;;20.03;57.36
50464;BME280;62167;38.552;-121.478;2022-08-19T09:23:13;100854.75;;;19.89;58.02
50464;BME280;62167;38.552;-121.478;2022-08-19T09:25:39;100859.75;;;19.92;57.92
50464;BME280;62167;38.552;-121.478;2022-08-19T09:28:06;100862.31;;;19.87;57.99
50464;BME280;62167;38.552;-121.478;2022-08-19T09:30:38;100860.91;;;19.84;57.77
50464;BME280;62167;38.552;-121.478;2022-08-19T09:33:05;100857.38;;;19.77;58.29
50464;BME280;62167;38.552;-121.478;2022-08-19T09:35:32;100854.91;;;19.69;58.53
50464;BME280;62167;38.552;-121.478;2022-08-19T09:37:59;100854.31;;;19.67;58.25
50464;BME280;62167;38.552;-121.478;2022-08-19T09:40:29;100851.97;;;19.70;58.69
50464;BME280;62167;38.552;-121.478;2022-08-19T09:42:58;100851.59;;;19.67;58.68
50464;BME280;62167;38.552;-121.478;2022-08-19T09:45:28;100859.06;;;19.47;59.07
50464;BME280;62167;38.552;-121.478;2022-08-19T09:47:54;100861.81;;;19.40;59.58
50464;BME280;62167;38.552;-121.478;2022-08-19T09:50:22;100857.06;;;19.29;59.99
50464;BME280;62167;38.552;-121.478;2022-08-19T09:52:50;100851.81;;;19.27;59.98
50464;BME280;62167;38.552;-121.478;2022-08-19T09:55:18;100861.09;;;19.19;60.52
50464;BME280;62167;38.552;-121.478;2022-08-19T09:57:44;100852.31;;;19.17;60.45
50464;BME280;62167;38.552;-121.478;2022-08-19T10:00:10;100852.78;;;19.08;60.74
50464;BME280;62167;38.552;-121.478;2022-08-19T10:02:37;100851.13;;;19.00;61.02
50464;BME280;62167;38.552;-121.478;2022-08-19T10:05:04;100841.03;;;19.01;60.75
50464;BME280;62167;38.552;-121.478;2022-08-19T10:07:48;100851.13;;;19.00;61.06
50464;BME280;62167;38.552;-121.478;2022-08-19T10:10:15;100848.84;;;18.90;61.52
50464;BME280;62167;38.552;-121.478;2022-08-19T10:12:41;100845.28;;;18.90;61.48
50464;BME280;62167;38.552;-121.478;2022-08-19T10:15:12;100835.91;;;18.79;61.68
50464;BME280;62167;38.552;-121.478;2022-08-19T10:17:39;100844.50;;;18.83;61.80
50464;BME280;62167;38.552;-121.478;2022-08-19T10:20:05;100840.09;;;18.82;62.00
50464;BME280;62167;38.552;-121.478;2022-08-19T10:22:32;100835.06;;;18.79;62.15
50464;BME280;62167;38.552;-121.478;2022-08-19T10:25:01;100849.34;;;18.81;61.88
50464;BME280;62167;38.552;-121.478;2022-08-19T10:27:27;100858.56;;;18.80;62.01
50464;BME280;62167;38.552;-121.478;2022-08-19T10:29:53;100849.16;;;18.69;62.41
50464;BME280;62167;38.552;-121.478;2022-08-19T10:32:20;100857.97;;;18.64;62.74
50464;BME280;62167;38.552;-121.478;2022-08-19T10:34:47;100851.91;;;18.62;62.78
50464;BME280;62167;38.552;-121.478;2022-08-19T10:37:16;100846.03;;;18.59;63.04
50464;BME280;62167;38.552;-121.478;2022-08-19T10:39:45;100849.19;;;18.56;63.10
50464;BME280;62167;38.552;-121.478;2022-08-19T10:42:13;100847.78;;;18.40;63.91
50464;BME280;62167;38.552;-121.478;2022-08-19T10:44:41;100853.88;;;18.35;63.97
50464;BME280;62167;38.552;-121.478;2022-08-19T10:47:08;100849.63;;;18.39;63.97
50464;BME280;62167;38.552;-121.478;2022-08-19T10:49:34;100857.63;;;18.41;63.75
50464;BME280;62167;38.552;-121.478;2022-08-19T10:52:20;100853.84;;;18.42;63.76
50464;BME280;62167;38.552;-121.478;2022-08-19T10:55:00;100856.81;;;18.40;63.93
50464;BME280;62167;38.552;-121.478;2022-08-19T10:57:45;100852.38;;;18.39;63.57
50464;BME280;62167;38.552;-121.478;2022-08-19T11:00:12;100848.41;;;18.35;63.82
50464;BME280;62167;38.552;-121.478;2022-08-19T11:02:39;100855.53;;;18.36;63.99
50464;BME280;62167;38.552;-121.478;2022-08-19T11:05:05;100863.94;;;18.28;64.11
50464;BME280;62167;38.552;-121.478;2022-08-19T11:07:32;100858.50;;;18.28;64.39
50464;BME280;62167;38.552;-121.478;2022-08-19T11:09:59;100858.91;;;18.32;64.36
50464;BME280;62167;38.552;-121.478;2022-08-19T11:12:25;100857.84;;;18.33;64.39
50464;BME280;62167;38.552;-121.478;2022-08-19T11:14:53;100854.09;;;18.27;64.24
50464;BME280;62167;38.552;-121.478;2022-08-19T11:17:20;100851.38;;;18.27;64.28
50464;BME280;62167;38.552;-121.478;2022-08-19T11:19:49;100859.53;;;18.27;64.31
50464;BME280;62167;38.552;-121.478;2022-08-19T11:22:15;100855.34;;;18.25;64.79
50464;BME280;62167;38.552;-121.478;2022-08-19T11:24:42;100855.34;;;18.25;64.43
50464;BME280;62167;38.552;-121.478;2022-08-19T11:27:09;100855.16;;;18.13;65.09
50464;BME280;62167;38.552;-121.478;2022-08-19T11:29:38;100863.78;;;18.10;65.37
50464;BME280;62167;38.552;-121.478;2022-08-19T11:32:08;100860.00;;;18.11;65.01
50464;BME280;62167;38.552;-121.478;2022-08-19T11:34:35;100859.97;;;18.04;65.39
50464;BME280;62167;38.552;-121.478;2022-08-19T11:37:03;100859.34;;;18.09;65.45
50464;BME280;62167;38.552;-121.478;2022-08-19T11:39:31;100857.69;;;18.08;65.36
50464;BME280;62167;38.552;-121.478;2022-08-19T11:41:58;100857.69;;;18.01;65.35
50464;BME280;62167;38.552;-121.478;2022-08-19T11:44:25;100857.47;;;18.03;65.34
50464;BME280;62167;38.552;-121.478;2022-08-19T11:46:52;100855.19;;;18.00;65.44
50464;BME280;62167;38.552;-121.478;2022-08-19T11:49:19;100852.88;;;17.97;65.45
50464;BME280;62167;38.552;-121.478;2022-08-19T11:51:47;100860.00;;;17.98;65.45
50464;BME280;62167;38.552;-121.478;2022-08-19T11:54:16;100849.34;;;17.89;65.77
50464;BME280;62167;38.552;-121.478;2022-08-19T11:56:44;100863.97;;;17.88;65.72
50464;BME280;62167;38.552;-121.478;2022-08-19T11:59:11;100847.84;;;17.87;66.00
50464;BME280;62167;38.552;-121.478;2022-08-19T12:01:38;100857.09;;;17.86;65.96
50464;BME280;62167;38.552;-121.478;2022-08-19T12:04:06;100856.88;;;17.81;66.36
50464;BME280;62167;38.552;-121.478;2022-08-19T12:06:33;100850.78;;;17.79;66.35
50464;BME280;62167;38.552;-121.478;2022-08-19T12:09:04;100863.56;;;17.78;66.34
50464;BME280;62167;38.552;-121.478;2022-08-19T12:11:31;100861.28;;;17.75;66.75
50464;BME280;62167;38.552;-121.478;2022-08-19T12:13:57;100861.03;;;17.70;66.75
50464;BME280;62167;38.552;-121.478;2022-08-19T12:16:26;100863.31;;;17.67;66.87
50464;BME280;62167;38.552;-121.478;2022-08-19T12:18:54;100870.25;;;17.69;67.06
50464;BME280;62167;38.552;-121.478;2022-08-19T12:21:25;100866.47;;;17.63;67.04
50464;BME280;62167;38.552;-121.478;2022-08-19T12:23:55;100866.47;;;17.63;67.11
50464;BME280;62167;38.552;-121.478;2022-08-19T12:26:22;100864.78;;;17.56;67.35
50464;BME280;62167;38.552;-121.478;2022-08-19T12:28:50;100865.19;;;17.53;67.68
50464;BME280;62167;38.552;-121.478;2022-08-19T12:31:16;100864.78;;;17.56;67.96
50464;BME280;62167;38.552;-121.478;2022-08-19T12:33:43;100864.16;;;17.47;68.00
50464;BME280;62167;38.552;-121.478;2022-08-19T12:36:13;100863.31;;;17.47;67.96
50464;BME280;62167;38.552;-121.478;2022-08-19T12:38:41;100855.53;;;17.37;68.29
50464;BME280;62167;38.552;-121.478;2022-08-19T12:41:11;100865.81;;;17.35;68.52
50464;BME280;62167;38.552;-121.478;2022-08-19T12:43:38;100864.31;;;17.32;68.67
50464;BME280;62167;38.552;-121.478;2022-08-19T12:46:07;100859.31;;;17.29;68.76